Time;durP1;ratioP1;P1;durP2;ratioP2;P2;SDS_P1;SDS_P2;PMS_P1;PMS_P2;Temp;Humidity;BMP_temperature;BMP_pressure;BME280_temperature;BME280_humidity;BME280_pressure;Samples;Min_cycle;Max_cycle;Signal;HPM_P1;HPM_P2
2024/04/25 00:00:55;;;;;;;;;;;;;;;16.37;58.85;99781.56;5387316;26;1192;-58
2024/04/25 00:03:20;;;;;;;;;;;;;;;16.18;58.13;99776.84;5387902;26;1868;-60
2024/04/25 00:05:46;;;;;;;;;;;;;;;16.08;57.94;99780.56;5387295;26;1309;-59
2024/04/25 00:08:11;;;;;;;;;;;;;;;15.91;57.75;99772.81;5387517;26;1172;-59
2024/04/25 00:10:38;;;;;;;;;;;;;;;15.87;57.52;99771.78;5386610;26;1128;-59
2024/04/25 00:13:04;;;;;;;;;;;;;;;16.19;59.22;99770.28;5387299;26;1176;-59
2024/04/25 00:15:29;;;;;;;;;;;;;;;17.40;59.31;99767.00;5387842;26;1300;-59
2024/04/25 00:17:55;;;;;;;;;;;;;;;17.38;58.94;99773.91;5387311;26;1180;-61
2024/04/25 00:20:20;;;;;;;;;;;;;;;16.69;59.30;99764.34;5387028;26;1161;-62
2024/04/25 00:22:46;;;;;;;;;;;;;;;16.41;58.92;99761.47;5386829;26;1856;-60
2024/04/25 00:25:11;;;;;;;;;;;;;;;16.23;58.31;99751.31;5386896;26;1121;-60
2024/04/25 00:27:37;;;;;;;;;;;;;;;16.08;58.07;99764.09;5387320;26;1287;-62
2024/04/25 00:30:03;;;;;;;;;;;;;;;16.01;57.72;99755.44;5387279;26;1274;-62
2024/04/25 00:32:28;;;;;;;;;;;;;;;15.88;57.64;99753.41;5387245;26;1371;-61
2024/04/25 00:34:55;;;;;;;;;;;;;;;16.98;59.82;99744.09;5387217;26;1156;-62
2024/04/25 00:37:21;;;;;;;;;;;;;;;17.59;58.66;99744.91;5387113;26;1184;-61
2024/04/25 00:39:46;;;;;;;;;;;;;;;16.75;59.51;99740.34;5378422;26;1590;-61
2024/04/25 00:42:17;;;;;;;;;;;;;;;16.50;58.72;99750.63;5373369;26;1826;-62
2024/04/25 00:44:43;;;;;;;;;;;;;;;16.24;58.39;99741.94;5387036;26;1355;-61
2024/04/25 00:47:08;;;;;;;;;;;;;;;16.12;58.02;99747.88;5371786;26;1781;-62
2024/04/25 00:49:34;;;;;;;;;;;;;;;15.97;57.95;99748.91;5356026;26;1268;-61
2024/04/25 00:51:59;;;;;;;;;;;;;;;15.88;57.53;99739.72;5386738;26;1278;-61
2024/04/25 00:54:25;;;;;;;;;;;;;;;16.74;60.03;99744.22;5387512;26;1307;-61
2024/04/25 00:56:50;;;;;;;;;;;;;;;17.51;58.87;99742.03;5386671;26;1283;-61
2024/04/25 00:59:16;;;;;;;;;;;;;;;16.67;59.48;99746.53;5384990;26;1259;-61
2024/04/25 01:01:43;;;;;;;;;;;;;;;16.32;59.08;99749.50;5386585;26;1330;-59
2024/04/25 01:04:09;;;;;;;;;;;;;;;16.20;58.26;99740.91;5386323;26;1826;-61
2024/04/25 01:06:34;;;;;;;;;;;;;;;16.01;58.11;99733.50;5355846;26;1178;-61
2024/04/25 01:09:00;;;;;;;;;;;;;;;15.90;57.86;99737.47;5356169;26;1270;-61
2024/04/25 01:11:27;;;;;;;;;;;;;;;16.42;59.82;99746.63;5386358;26;1287;-61
2024/04/25 01:13:53;;;;;;;;;;;;;;;17.61;58.95;99742.66;5386095;26;1259;-61
2024/04/25 01:16:19;;;;;;;;;;;;;;;17.03;59.25;99735.78;5386714;26;1302;-61
2024/04/25 01:18:44;;;;;;;;;;;;;;;16.53;59.09;99738.22;5355773;26;1283;-61
2024/04/25 01:21:10;;;;;;;;;;;;;;;16.26;58.64;99739.75;5387127;26;1290;-61
2024/04/25 01:23:37;;;;;;;;;;;;;;;16.18;58.00;99732.16;5355180;26;1872;-61
2024/04/25 01:26:03;;;;;;;;;;;;;;;16.00;57.94;99720.88;5387244;26;1196;-61
2024/04/25 01:28:29;;;;;;;;;;;;;;;15.89;57.58;99725.72;5386383;26;1359;-60
2024/04/25 01:30:54;;;;;;;;;;;;;;;16.96;60.04;99726.28;5355555;26;1251;-57
2024/04/25 01:33:20;;;;;;;;;;;;;;;17.49;58.82;99719.53;5386590;26;1394;-57
2024/04/25 01:35:46;;;;;;;;;;;;;;;16.64;59.39;99722.44;5386200;26;1263;-57
2024/04/25 01:38:12;;;;;;;;;;;;;;;16.35;58.91;99718.72;5386183;26;1235;-57
2024/04/25 01:40:37;;;;;;;;;;;;;;;16.18;58.41;99707.50;5355589;26;1176;-57
2024/04/25 01:43:03;;;;;;;;;;;;;;;16.05;58.08;99709.06;5385799;26;1825;-57
2024/04/25 01:45:28;;;;;;;;;;;;;;;15.94;57.68;99710.31;5385793;26;1268;-57
2024/04/25 01:47:54;;;;;;;;;;;;;;;16.02;58.79;99715.94;5385682;26;1176;-57
2024/04/25 01:50:19;;;;;;;;;;;;;;;17.27;59.61;99712.81;5386097;26;1349;-58
2024/04/25 01:52:45;;;;;;;;;;;;;;;17.47;58.66;99713.53;5386070;26;1243;-59
2024/04/25 01:55:10;;;;;;;;;;;;;;;16.74;59.20;99716.75;5385790;26;1275;-58
2024/04/25 01:57:36;;;;;;;;;;;;;;;16.42;58.67;99715.63;5384656;26;1774;-61
2024/04/25 02:00:01;;;;;;;;;;;;;;;16.26;58.15;99709.56;5385970;26;1242;-61
2024/04/25 02:02:35;;;;;;;;;;;;;;;16.08;58.04;99711.19;5385875;26;1858;-61
2024/04/25 02:05:00;;;;;;;;;;;;;;;15.94;57.99;99705.63;5385799;26;1314;-61
2024/04/25 02:07:26;;;;;;;;;;;;;;;17.03;59.90;99721.25;5361852;26;1656;-61
2024/04/25 02:09:51;;;;;;;;;;;;;;;17.75;58.39;99714.34;5386039;26;1279;-60
2024/04/25 02:12:18;;;;;;;;;;;;;;;16.88;59.08;99711.31;5365146;26;1090;-60
2024/04/25 02:14:44;;;;;;;;;;;;;;;16.50;59.01;99705.91;5385546;26;1155;-61
2024/04/25 02:17:09;;;;;;;;;;;;;;;16.31;58.53;99701.25;5385505;26;1085;-62
2024/04/25 02:19:35;;;;;;;;;;;;;;;16.16;58.07;99705.03;5385462;26;1269;-61
2024/04/25 02:27:28;;;;;;;;;;;;;;;17.72;58.88;99713.00;5385484;26;1291;-60
2024/04/25 02:29:54;;;;;;;;;;;;;;;16.94;59.43;99710.13;5385899;26;1313;-61
2024/04/25 02:32:19;;;;;;;;;;;;;;;16.56;59.13;99707.44;5385493;26;1195;-61
2024/04/25 02:34:45;;;;;;;;;;;;;;;16.31;58.60;99697.69;5385253;26;1175;-61
2024/04/25 02:37:10;;;;;;;;;;;;;;;16.15;58.22;99692.44;5384849;26;1040;-61
2024/04/25 02:39:36;;;;;;;;;;;;;;;16.03;57.84;99692.91;5383568;26;1570;-60
2024/04/25 02:42:01;;;;;;;;;;;;;;;15.86;57.74;99690.63;5385563;26;1839;-61
2024/04/25 02:44:27;;;;;;;;;;;;;;;15.83;57.69;99699.47;5383929;26;1765;-61
2024/04/25 02:46:52;;;;;;;;;;;;;;;16.97;59.96;99698.56;5384616;26;1080;-60
2024/04/25 02:49:19;;;;;;;;;;;;;;;17.71;58.61;99700.41;5385745;26;1172;-60
2024/04/25 02:51:45;;;;;;;;;;;;;;;16.77;59.58;99700.50;5385101;26;1314;-60
2024/04/25 02:54:11;;;;;;;;;;;;;;;16.46;58.90;99693.91;5385269;26;1343;-60
2024/04/25 02:56:36;;;;;;;;;;;;;;;16.30;58.40;99696.88;5384882;26;1200;-58
2024/04/25 02:59:02;;;;;;;;;;;;;;;16.16;58.01;99701.47;5384971;26;1347;-61
2024/04/25 03:01:28;;;;;;;;;;;;;;;16.00;57.85;99703.63;5383909;26;1221;-60
2024/04/25 03:03:53;;;;;;;;;;;;;;;15.89;57.56;99703.78;5386077;26;1864;-61
2024/04/25 03:06:20;;;;;;;;;;;;;;;15.79;57.76;99711.28;5384562;26;1256;-61
2024/04/25 03:08:46;;;;;;;;;;;;;;;17.01;59.84;99709.72;5385152;26;1309;-63
2024/04/25 03:11:11;;;;;;;;;;;;;;;17.77;58.59;99712.09;5379759;26;1454;-62
2024/04/25 03:13:37;;;;;;;;;;;;;;;16.85;59.29;99693.50;5384595;26;1068;-62
2024/04/25 03:16:03;;;;;;;;;;;;;;;16.49;58.96;99685.88;5382676;26;1496;-59
2024/04/25 03:18:29;;;;;;;;;;;;;;;16.28;58.49;99682.63;5379640;26;1164;-59
2024/04/25 03:20:59;;;;;;;;;;;;;;;16.10;58.09;99694.44;5383456;26;1617;-60
2024/04/25 03:23:25;;;;;;;;;;;;;;;15.97;57.88;99683.09;5378490;26;2590;-58
2024/04/25 03:25:50;;;;;;;;;;;;;;;15.85;57.53;99686.28;5386509;26;2130;-61
2024/04/25 03:28:16;;;;;;;;;;;;;;;16.31;59.65;99692.19;5383589;26;2176;-61
2024/04/25 03:30:41;;;;;;;;;;;;;;;17.50;59.32;99688.19;5386195;26;2118;-60
2024/04/25 03:33:07;;;;;;;;;;;;;;;17.27;59.06;99691.66;5386176;26;2197;-59
2024/04/25 03:35:32;;;;;;;;;;;;;;;16.65;59.40;99686.44;5376005;26;1478;-60
2024/04/25 03:37:58;;;;;;;;;;;;;;;16.38;58.86;99687.97;5382781;26;1240;-60
2024/04/25 03:40:23;;;;;;;;;;;;;;;16.19;58.42;99690.72;5387291;26;1375;-58
2024/04/25 03:42:49;;;;;;;;;;;;;;;16.05;57.96;99693.41;5376979;26;1828;-62
2024/04/25 03:45:14;;;;;;;;;;;;;;;15.97;57.76;99694.06;5385775;26;1295;-61
2024/04/25 03:47:40;;;;;;;;;;;;;;;15.73;57.56;99672.97;5385114;26;1468;-60
2024/04/25 03:50:06;;;;;;;;;;;;;;;16.55;59.92;99695.66;5377043;26;1335;-59
2024/04/25 03:52:31;;;;;;;;;;;;;;;17.68;58.98;99702.94;5387285;26;1212;-59
2024/04/25 03:54:57;;;;;;;;;;;;;;;17.20;59.18;99695.94;5387160;26;1133;-63
2024/04/25 03:57:22;;;;;;;;;;;;;;;16.59;59.37;99693.94;5386671;26;1456;-59
2024/04/25 03:59:48;;;;;;;;;;;;;;;16.38;58.78;99693.47;5386354;26;1255;-59
2024/04/25 04:02:13;;;;;;;;;;;;;;;16.21;58.32;99677.53;5385803;26;1820;-59
2024/04/25 04:04:39;;;;;;;;;;;;;;;16.91;59.07;99666.78;5385810;26;2885;-59
2024/04/25 04:07:04;;;;;;;;;;;;;;;17.38;57.12;99681.28;5386512;26;1234;-60
2024/04/25 04:09:30;;;;;;;;;;;;;;;16.71;55.69;99678.94;5386564;26;1096;-59
2024/04/25 04:11:55;;;;;;;;;;;;;;;16.36;54.28;99672.94;5363595;26;1518;-59
2024/04/25 04:14:21;;;;;;;;;;;;;;;16.22;52.69;99670.13;5383629;26;1272;-59
2024/04/25 04:16:46;;;;;;;;;;;;;;;16.12;51.74;99675.75;5386607;26;1179;-59
2024/04/25 04:19:12;;;;;;;;;;;;;;;15.97;51.02;99669.38;5385959;26;1504;-59
2024/04/25 04:21:38;;;;;;;;;;;;;;;15.99;50.43;99669.91;5386723;26;1157;-59
2024/04/25 04:24:04;;;;;;;;;;;;;;;15.83;50.09;99669.31;5386636;26;1825;-59
2024/04/25 04:26:29;;;;;;;;;;;;;;;15.79;49.64;99670.16;5385241;26;981;-59
2024/04/25 04:28:55;;;;;;;;;;;;;;;15.73;49.42;99672.97;5384990;26;1231;-59
2024/04/25 04:31:20;;;;;;;;;;;;;;;15.68;49.24;99684.03;5386282;26;1132;-59
2024/04/25 04:33:46;;;;;;;;;;;;;;;15.62;49.12;99682.44;5397847;26;2710;-59
2024/04/25 04:36:11;;;;;;;;;;;;;;;15.66;48.71;99678.00;5374582;26;1112;-59
2024/04/25 04:38:37;;;;;;;;;;;;;;;15.52;48.71;99682.56;5383005;26;1073;-59
2024/04/25 04:41:02;;;;;;;;;;;;;;;15.52;48.58;99682.56;5385971;26;1275;-58
2024/04/25 04:43:28;;;;;;;;;;;;;;;15.49;48.37;99670.28;5385453;26;1853;-58
2024/04/25 04:45:55;;;;;;;;;;;;;;;15.48;47.97;99656.88;5385972;26;1136;-58
2024/04/25 04:48:23;;;;;;;;;;;;;;;15.39;47.87;99668.47;5386251;26;1366;-59
2024/04/25 04:50:49;;;;;;;;;;;;;;;15.36;48.06;99680.03;5385332;26;1160;-59
2024/04/25 04:53:14;;;;;;;;;;;;;;;15.27;47.99;99687.25;5386122;26;1212;-59
2024/04/25 04:55:42;;;;;;;;;;;;;;;15.23;47.78;99686.19;5385419;26;1156;-59
2024/04/25 04:58:08;;;;;;;;;;;;;;;16.05;49.93;99696.13;5386141;26;1177;-60
2024/04/25 05:00:34;;;;;;;;;;;;;;;15.70;51.38;99681.78;5385588;26;1259;-59
2024/04/25 05:02:59;;;;;;;;;;;;;;;15.55;50.41;99695.69;5384892;26;2869;-59
2024/04/25 05:05:25;;;;;;;;;;;;;;;15.47;49.50;99690.84;5385916;26;1192;-59
2024/04/25 05:07:55;;;;;;;;;;;;;;;15.36;48.96;99701.94;5385381;26;1351;-59
2024/04/25 05:10:24;;;;;;;;;;;;;;;15.35;48.65;99689.34;5385784;26;1176;-59
2024/04/25 05:12:50;;;;;;;;;;;;;;;15.34;47.95;99686.91;5385526;26;1148;-58
2024/04/25 05:15:16;;;;;;;;;;;;;;;15.18;48.08;99686.22;5385580;26;1176;-59
2024/04/25 05:17:41;;;;;;;;;;;;;;;15.14;48.01;99694.22;5385758;26;1196;-59
2024/04/25 05:20:08;;;;;;;;;;;;;;;15.18;47.67;99688.97;5383234;26;1511;-59
2024/04/25 05:22:36;;;;;;;;;;;;;;;15.15;47.39;99698.63;5384395;26;1833;-59
2024/04/25 05:25:02;;;;;;;;;;;;;;;16.07;50.15;99698.59;5384986;26;1227;-59
2024/04/25 05:27:27;;;;;;;;;;;;;;;15.54;50.35;99705.84;5362194;26;1365;-59
2024/04/25 05:29:53;;;;;;;;;;;;;;;15.34;49.60;99708.81;5385629;26;1128;-59
2024/04/25 05:32:18;;;;;;;;;;;;;;;15.42;48.68;99704.59;5384717;26;1346;-59
2024/04/25 05:34:45;;;;;;;;;;;;;;;15.36;48.23;99698.38;5385258;26;2732;-59
2024/04/25 05:37:11;;;;;;;;;;;;;;;15.22;48.07;99695.50;5384684;26;1116;-59
2024/04/25 05:39:36;;;;;;;;;;;;;;;15.65;48.64;99698.28;5384164;26;1266;-59
2024/04/25 05:42:02;;;;;;;;;;;;;;;15.97;50.64;99701.47;5384184;26;1829;-60
2024/04/25 05:44:27;;;;;;;;;;;;;;;15.59;50.20;99696.72;5384420;26;1277;-59
2024/04/25 05:46:54;;;;;;;;;;;;;;;15.52;49.34;99712.72;5381095;26;1219;-59
2024/04/25 05:49:20;;;;;;;;;;;;;;;15.43;48.75;99714.47;5384354;26;1461;-59
2024/04/25 05:51:45;;;;;;;;;;;;;;;15.38;48.36;99715.34;5384651;26;1362;-59
2024/04/25 05:54:11;;;;;;;;;;;;;;;15.38;47.91;99707.94;5385053;26;1290;-59
2024/04/25 05:56:36;;;;;;;;;;;;;;;15.25;47.79;99710.53;5385254;26;1247;-60
2024/04/25 05:59:02;;;;;;;;;;;;;;;16.18;48.95;99704.75;5384806;26;1231;-62
2024/04/25 06:01:27;;;;;;;;;;;;;;;15.61;49.77;99701.91;5384841;26;1188;-62
2024/04/25 06:03:53;;;;;;;;;;;;;;;15.49;49.14;99721.53;5384611;26;2603;-64
2024/04/25 06:06:18;;;;;;;;;;;;;;;16.22;50.77;99716.75;5383966;26;1250;-61
2024/04/25 06:08:44;;;;;;;;;;;;;;;15.82;50.18;99713.47;5384195;26;1223;-62
2024/04/25 06:11:10;;;;;;;;;;;;;;;15.62;49.55;99709.84;5384421;26;1200;-60
2024/04/25 06:13:35;;;;;;;;;;;;;;;15.56;48.97;99702.81;5383395;26;1434;-59
2024/04/25 06:16:02;;;;;;;;;;;;;;;15.39;48.50;99695.88;5383445;26;1223;-62
2024/04/25 06:18:28;;;;;;;;;;;;;;;15.39;48.11;99693.13;5353272;26;1231;-62
2024/04/25 06:20:53;;;;;;;;;;;;;;;16.27;49.68;99692.00;5383820;26;1490;-62
2024/04/25 06:23:19;;;;;;;;;;;;;;;15.73;50.33;99689.41;5384009;26;1864;-62
2024/04/25 06:25:46;;;;;;;;;;;;;;;15.59;49.46;99698.66;5383896;26;1223;-62
2024/04/25 06:28:12;;;;;;;;;;;;;;;15.60;48.48;99703.84;5384219;26;1597;-63
2024/04/25 06:30:37;;;;;;;;;;;;;;;15.52;48.24;99712.72;5384281;26;1315;-62
2024/04/25 06:33:03;;;;;;;;;;;;;;;15.45;47.98;99715.81;5384209;26;2683;-62
2024/04/25 06:35:29;;;;;;;;;;;;;;;16.22;49.18;99716.75;5384725;26;1299;-62
2024/04/25 06:37:54;;;;;;;;;;;;;;;15.70;49.91;99716.59;5382756;26;1231;-62
2024/04/25 06:40:20;;;;;;;;;;;;;;;15.57;49.26;99701.66;5383392;26;1290;-62
2024/04/25 06:42:46;;;;;;;;;;;;;;;15.47;48.83;99719.03;5383001;26;1868;-62
2024/04/25 06:45:11;;;;;;;;;;;;;;;15.49;48.09;99721.53;5383733;26;1527;-62
2024/04/25 06:47:37;;;;;;;;;;;;;;;15.37;47.92;99722.72;5382999;26;1274;-62
2024/04/25 06:50:04;;;;;;;;;;;;;;;15.78;48.66;99728.84;5382840;26;1347;-62
2024/04/25 06:52:30;;;;;;;;;;;;;;;16.07;50.61;99720.53;5383614;26;1219;-62
2024/04/25 06:54:55;;;;;;;;;;;;;;;15.73;49.81;99724.25;5335637;26;1254;-62
2024/04/25 06:57:21;;;;;;;;;;;;;;;15.62;49.05;99717.25;5382392;26;1347;-62
2024/04/25 06:59:50;;;;;;;;;;;;;;;15.51;48.20;99722.84;5384219;26;1207;-63
2024/04/25 07:02:19;;;;;;;;;;;;;;;15.47;48.06;99719.03;5382842;26;1825;-62
2024/04/25 07:04:44;;;;;;;;;;;;;;;15.47;47.43;99718.25;5383779;26;2721;-62
2024/04/25 07:07:10;;;;;;;;;;;;;;;15.33;47.57;99718.13;5383183;26;1172;-62
2024/04/25 07:09:37;;;;;;;;;;;;;;;15.33;47.16;99718.97;5383544;26;1144;-62
2024/04/25 07:12:03;;;;;;;;;;;;;;;15.28;47.03;99709.94;5383091;26;1326;-62
2024/04/25 07:14:30;;;;;;;;;;;;;;;15.25;46.79;99725.06;5355167;26;1118;-62
2024/04/25 07:16:55;;;;;;;;;;;;;;;16.34;49.75;99719.88;5383179;26;1354;-63
2024/04/25 07:19:21;;;;;;;;;;;;;;;15.66;50.28;99716.38;5382834;26;1506;-62
2024/04/25 07:21:46;;;;;;;;;;;;;;;15.57;49.39;99709.91;5383879;26;1243;-62
2024/04/25 07:24:12;;;;;;;;;;;;;;;15.44;48.86;99716.91;5383901;26;1814;-63
2024/04/25 07:26:37;;;;;;;;;;;;;;;15.37;48.39;99714.50;5383250;26;1140;-61
2024/04/25 07:29:03;;;;;;;;;;;;;;;15.42;47.69;99713.66;5383729;26;1269;-64
2024/04/25 07:31:28;;;;;;;;;;;;;;;15.36;47.51;99721.13;5383265;26;1207;-61
2024/04/25 07:33:54;;;;;;;;;;;;;;;15.23;47.52;99714.41;5395944;26;2775;-63
2024/04/25 07:36:22;;;;;;;;;;;;;;;15.28;47.21;99718.16;5382499;26;1371;-65
2024/04/25 07:38:48;;;;;;;;;;;;;;;15.22;47.21;99707.28;5382381;26;1240;-68
2024/04/25 07:41:13;;;;;;;;;;;;;;;15.12;47.19;99726.53;5382655;26;1193;-65
2024/04/25 07:43:39;;;;;;;;;;;;;;;15.07;47.25;99726.63;5382686;26;1890;-64
2024/04/25 07:46:11;;;;;;;;;;;;;;;16.29;49.70;99730.09;5382995;26;1135;-66
2024/04/25 07:48:37;;;;;;;;;;;;;;;15.66;50.57;99727.31;5361209;26;1227;-64
2024/04/25 07:51:03;;;;;;;;;;;;;;;15.50;49.76;99717.66;5382954;26;1281;-66
2024/04/25 07:53:28;;;;;;;;;;;;;;;15.46;48.87;99713.88;5376453;26;1154;-67
2024/04/25 07:55:54;;;;;;;;;;;;;;;15.47;48.13;99713.56;5372650;26;1278;-68
2024/04/25 07:58:19;;;;;;;;;;;;;;;15.32;47.71;99706.38;5382930;26;1234;-67
2024/04/25 08:00:45;;;;;;;;;;;;;;;15.29;47.65;99717.91;5383174;26;1274;-62
2024/04/25 08:03:11;;;;;;;;;;;;;;;15.89;48.91;99714.75;5382325;26;2773;-65
2024/04/25 08:05:37;;;;;;;;;;;;;;;15.90;50.25;99707.31;5382379;26;1273;-61
2024/04/25 08:08:02;;;;;;;;;;;;;;;15.55;49.81;99698.44;5382258;26;1357;-61
2024/04/25 08:10:28;;;;;;;;;;;;;;;15.43;49.12;99695.28;5385347;26;1235;-62
2024/04/25 08:12:53;;;;;;;;;;;;;;;15.44;48.21;99689.50;5386493;26;1268;-62
2024/04/25 08:15:19;;;;;;;;;;;;;;;15.34;48.19;99695.91;5386275;26;1175;-62
2024/04/25 08:17:48;;;;;;;;;;;;;;;15.31;47.81;99699.25;5386238;26;1180;-62
2024/04/25 08:20:14;;;;;;;;;;;;;;;15.17;47.70;99699.13;5385437;26;1416;-61
2024/04/25 08:22:39;;;;;;;;;;;;;;;15.15;47.50;99706.00;5386268;26;1880;-61
2024/04/25 08:25:05;;;;;;;;;;;;;;;15.18;47.18;99711.72;5386411;26;1218;-61
2024/04/25 08:27:31;;;;;;;;;;;;;;;15.25;47.48;99705.91;5385253;26;1228;-61
2024/04/25 08:29:56;;;;;;;;;;;;;;;16.35;50.05;99716.00;5386137;26;1111;-60
2024/04/25 08:32:22;;;;;;;;;;;;;;;15.65;50.42;99725.69;5385145;26;1362;-58
2024/04/25 08:34:47;;;;;;;;;;;;;;;15.59;49.38;99718.66;5385760;26;3013;-59
2024/04/25 08:37:13;;;;;;;;;;;;;;;15.44;48.88;99724.31;5385074;26;1401;-59
2024/04/25 08:39:38;;;;;;;;;;;;;;;15.95;49.76;99722.88;5384796;26;1227;-59
2024/04/25 08:42:05;;;;;;;;;;;;;;;15.99;51.16;99719.28;5385361;26;1843;-60
2024/04/25 08:44:31;;;;;;;;;;;;;;;15.67;50.20;99718.00;5354994;26;1527;-62
2024/04/25 08:46:57;;;;;;;;;;;;;;;15.62;49.23;99720.00;5384950;26;1314;-63
2024/04/25 08:49:22;;;;;;;;;;;;;;;15.49;48.64;99721.53;5385350;26;1138;-58
2024/04/25 08:51:49;;;;;;;;;;;;;;;15.43;48.15;99706.22;5352166;26;1060;-63
2024/04/25 08:54:15;;;;;;;;;;;;;;;15.35;47.93;99721.41;5355017;26;1223;-61
2024/04/25 08:56:40;;;;;;;;;;;;;;;15.35;47.50;99704.97;5355100;26;1129;-61
2024/04/25 08:59:06;;;;;;;;;;;;;;;15.40;47.13;99702.16;5385836;26;1295;-60
2024/04/25 09:01:31;;;;;;;;;;;;;;;15.34;47.06;99704.13;5386463;26;1117;-60
2024/04/25 09:03:57;;;;;;;;;;;;;;;15.19;47.09;99709.78;5351809;26;2716;-58
2024/04/25 09:06:23;;;;;;;;;;;;;;;16.17;49.14;99725.03;5355055;26;1204;-62
2024/04/25 09:08:49;;;;;;;;;;;;;;;15.78;50.51;99729.66;5385247;26;1365;-65
2024/04/25 09:11:19;;;;;;;;;;;;;;;15.58;49.55;99722.50;5386222;26;1364;-65
2024/04/25 09:13:53;;;;;;;;;;;;;;;15.48;48.81;99714.41;5385559;26;1172;-64
2024/04/25 09:16:19;;;;;;;;;;;;;;;15.35;48.21;99711.25;5385467;26;1005;-62
2024/04/25 09:18:48;;;;;;;;;;;;;;;15.90;48.85;99710.06;5384940;26;1180;-64
2024/04/25 09:21:13;;;;;;;;;;;;;;;15.88;50.04;99701.34;5384154;26;1387;-59
2024/04/25 09:23:42;;;;;;;;;;;;;;;15.67;49.34;99701.56;5354789;26;1825;-61
2024/04/25 09:26:12;;;;;;;;;;;;;;;15.49;48.93;99699.59;5385949;26;1238;-62
2024/04/25 09:28:37;;;;;;;;;;;;;;;15.49;48.02;99692.19;5385180;26;1200;-60
2024/04/25 09:31:03;;;;;;;;;;;;;;;15.48;47.77;99692.50;5383734;26;1140;-60
2024/04/25 09:33:29;;;;;;;;;;;;;;;15.42;47.36;99699.94;5386517;26;2817;-62
2024/04/25 09:35:54;;;;;;;;;;;;;;;16.31;49.30;99689.47;5384920;26;1391;-61
2024/04/25 09:38:20;;;;;;;;;;;;;;;15.69;49.76;99691.09;5302363;26;1453;-61
2024/04/25 09:40:46;;;;;;;;;;;;;;;15.58;49.04;99686.88;5384966;26;1093;-61
2024/04/25 09:43:12;;;;;;;;;;;;;;;15.56;48.35;99691.84;5385608;26;1849;-63
2024/04/25 09:45:39;;;;;;;;;;;;;;;15.50;47.99;99690.25;5385192;26;1235;-60
2024/04/25 09:48:09;;;;;;;;;;;;;;;15.45;47.61;99696.63;5384133;26;1279;-60
2024/04/25 09:50:34;;;;;;;;;;;;;;;15.43;47.50;99693.38;5349694;26;1266;-59
2024/04/25 09:53:04;;;;;;;;;;;;;;;15.30;47.28;99697.59;5354231;26;1003;-61
2024/04/25 09:55:39;;;;;;;;;;;;;;;15.31;47.21;99693.78;5354032;26;1125;-60
2024/04/25 09:58:05;;;;;;;;;;;;;;;15.26;47.12;99696.56;5384574;26;1128;-59
2024/04/25 10:00:30;;;;;;;;;;;;;;;15.24;46.80;99687.81;5385055;26;1307;-59
2024/04/25 10:02:56;;;;;;;;;;;;;;;15.26;46.67;99682.84;5385274;26;1837;-59
2024/04/25 10:05:21;;;;;;;;;;;;;;;15.19;46.65;99680.50;5381207;26;2954;-59
2024/04/25 10:07:48;;;;;;;;;;;;;;;15.12;46.94;99685.47;5384208;26;1310;-59
2024/04/25 10:10:14;;;;;;;;;;;;;;;16.29;48.86;99677.97;5385146;26;1184;-59
2024/04/25 10:12:39;;;;;;;;;;;;;;;15.80;50.33;99680.06;5384689;26;1227;-59
2024/04/25 10:15:06;;;;;;;;;;;;;;;15.58;49.51;99684.13;5359678;26;1223;-59
2024/04/25 10:17:35;;;;;;;;;;;;;;;15.58;48.84;99692.34;5384463;26;1121;-59
2024/04/25 10:20:01;;;;;;;;;;;;;;;15.49;48.05;99694.13;5383822;26;1410;-59
2024/04/25 10:22:27;;;;;;;;;;;;;;;15.40;47.88;99678.34;5381964;26;1870;-59
2024/04/25 10:24:53;;;;;;;;;;;;;;;15.38;47.60;99690.69;5383272;26;1295;-60
2024/04/25 10:27:19;;;;;;;;;;;;;;;15.28;47.29;99688.88;5352460;26;1516;-59
2024/04/25 10:29:50;;;;;;;;;;;;;;;15.26;47.07;99693.81;5383908;26;1211;-59
2024/04/25 10:32:16;;;;;;;;;;;;;;;15.21;47.02;99699.38;5382268;26;1509;-59
2024/04/25 10:34:42;;;;;;;;;;;;;;;15.83;48.41;99691.22;5384076;26;2832;-59
2024/04/25 10:37:07;;;;;;;;;;;;;;;15.80;49.87;99691.84;5383827;26;1237;-60
2024/04/25 10:39:33;;;;;;;;;;;;;;;15.55;49.36;99690.22;5383347;26;1420;-59
2024/04/25 10:41:58;;;;;;;;;;;;;;;15.51;48.62;99691.91;5384237;26;1136;-59
2024/04/25 10:44:24;;;;;;;;;;;;;;;15.38;48.03;99696.97;5384285;26;1860;-59
2024/04/25 10:46:49;;;;;;;;;;;;;;;15.34;47.73;99682.22;5383704;26;1446;-60
2024/04/25 10:49:15;;;;;;;;;;;;;;;16.07;48.77;99674.75;5383969;26;1124;-59
2024/04/25 10:51:42;;;;;;;;;;;;;;;15.87;49.79;99675.81;5383882;26;1167;-56
2024/04/25 10:54:08;;;;;;;;;;;;;;;15.63;49.46;99673.13;5384291;26;1256;-60
2024/04/25 10:56:33;;;;;;;;;;;;;;;15.44;48.94;99661.31;5383683;26;1274;-61
2024/04/25 10:58:59;;;;;;;;;;;;;;;15.46;48.35;99670.88;5383746;26;1270;-61
2024/04/25 11:01:24;;;;;;;;;;;;;;;15.40;47.83;99672.84;5383977;26;1254;-62
2024/04/25 11:04:00;;;;;;;;;;;;;;;15.48;47.33;99676.06;5384122;26;2648;-62
2024/04/25 11:06:26;;;;;;;;;;;;;;;15.29;47.48;99660.41;5383782;26;1227;-63
2024/04/25 11:08:52;;;;;;;;;;;;;;;15.97;48.42;99650.19;5383944;26;1282;-63
2024/04/25 11:11:17;;;;;;;;;;;;;;;15.85;50.02;99650.66;5384000;26;1036;-58
2024/04/25 11:13:43;;;;;;;;;;;;;;;15.58;49.41;99640.28;5383792;26;1239;-56
2024/04/25 11:16:08;;;;;;;;;;;;;;;15.57;48.69;99649.63;5383612;26;1303;-60
2024/04/25 11:18:34;;;;;;;;;;;;;;;15.48;48.07;99641.25;5383758;26;1223;-59
2024/04/25 11:21:02;;;;;;;;;;;;;;;15.39;47.77;99634.81;5383234;26;1396;-58
2024/04/25 11:23:34;;;;;;;;;;;;;;;15.45;47.35;99641.03;5352818;26;1830;-59
2024/04/25 11:26:02;;;;;;;;;;;;;;;15.26;47.62;99638.25;5382732;26;1240;-57
2024/04/25 11:28:27;;;;;;;;;;;;;;;15.31;47.26;99639.00;5382866;26;1233;-59
2024/04/25 11:30:53;;;;;;;;;;;;;;;15.31;46.86;99640.94;5382908;26;1578;-60
2024/04/25 11:33:22;;;;;;;;;;;;;;;16.20;49.08;99639.41;5383477;26;2759;-62
2024/04/25 11:35:47;;;;;;;;;;;;;;;15.69;49.47;99643.72;5383929;26;1119;-63
2024/04/25 11:38:13;;;;;;;;;;;;;;;15.59;48.74;99641.13;5383485;26;1160;-68
2024/04/25 11:40:40;;;;;;;;;;;;;;;15.48;48.17;99632.22;5383173;26;1092;-66
2024/04/25 11:43:06;;;;;;;;;;;;;;;15.41;47.87;99621.63;5383681;26;1856;-64
2024/04/25 11:45:32;;;;;;;;;;;;;;;15.39;47.38;99627.38;5386344;26;1275;-64
2024/04/25 11:47:57;;;;;;;;;;;;;;;15.44;47.15;99623.75;5387135;26;1109;-66
2024/04/25 11:50:23;;;;;;;;;;;;;;;15.38;47.03;99627.69;5385732;26;1235;-65
2024/04/25 11:52:48;;;;;;;;;;;;;;;15.27;46.88;99621.50;5385992;26;1223;-62
2024/04/25 11:55:14;;;;;;;;;;;;;;;15.20;46.99;99616.38;5386366;26;1231;-64
2024/04/25 11:57:39;;;;;;;;;;;;;;;15.19;47.02;99614.78;5386046;26;1180;-62
2024/04/25 12:00:06;;;;;;;;;;;;;;;15.17;46.76;99606.03;5386703;26;1238;-64
2024/04/25 12:02:38;;;;;;;;;;;;;;;15.18;46.81;99613.13;5387050;26;1866;-63
2024/04/25 12:05:05;;;;;;;;;;;;;;;15.21;46.71;99600.78;5386612;26;2957;-64
2024/04/25 12:07:30;;;;;;;;;;;;;;;15.11;46.80;99598.16;5386574;26;1156;-65
2024/04/25 12:09:56;;;;;;;;;;;;;;;15.33;47.13;99598.44;5387253;26;1260;-64
2024/04/25 12:12:21;;;;;;;;;;;;;;;16.39;49.58;99590.03;5386757;26;1127;-66
2024/04/25 12:14:47;;;;;;;;;;;;;;;15.76;50.00;99588.53;5383992;26;1268;-63
2024/04/25 12:17:13;;;;;;;;;;;;;;;15.51;49.40;99594.06;5385675;26;1251;-65
2024/04/25 12:19:38;;;;;;;;;;;;;;;15.39;48.80;99586.31;5385010;26;1303;-67
2024/04/25 12:22:03;;;;;;;;;;;;;;;15.46;48.00;99591.41;5384877;26;1467;-62
2024/04/25 12:24:29;;;;;;;;;;;;;;;15.42;47.79;99592.28;5385277;26;1845;-66
2024/04/25 12:26:55;;;;;;;;;;;;;;;15.26;47.56;99581.53;5385658;26;1485;-65
2024/04/25 12:29:20;;;;;;;;;;;;;;;15.26;47.40;99588.94;5384888;26;1414;-65
2024/04/25 12:31:47;;;;;;;;;;;;;;;15.63;48.04;99595.59;5385741;26;1465;-64
2024/04/25 12:34:13;;;;;;;;;;;;;;;15.74;49.58;99588.84;5386135;26;2643;-65
2024/04/25 12:36:39;;;;;;;;;;;;;;;15.54;49.15;99588.03;5385214;26;1351;-65
2024/04/25 12:39:06;;;;;;;;;;;;;;;15.44;48.48;99598.31;5378220;26;1259;-64
2024/04/25 12:41:31;;;;;;;;;;;;;;;15.43;47.79;99592.03;5384937;26;1267;-64
2024/04/25 12:43:57;;;;;;;;;;;;;;;16.13;48.85;99589.63;5385693;26;1817;-65
2024/04/25 12:46:22;;;;;;;;;;;;;;;15.80;49.87;99584.13;5385264;26;1418;-65
2024/04/25 12:48:47;;;;;;;;;;;;;;;15.61;49.04;99582.16;5385869;26;1204;-59
2024/04/25 12:51:13;;;;;;;;;;;;;;;15.50;48.55;99586.16;5385580;26;1282;-61
2024/04/25 12:53:39;;;;;;;;;;;;;;;15.46;47.97;99590.59;5385451;26;1043;-61
2024/04/25 12:56:05;;;;;;;;;;;;;;;15.44;47.67;99603.78;5385939;26;1133;-60